sensor_id;sensor_type;location;lat;lon;timestamp;P1;durP1;ratioP1;P2;durP2;ratioP2
40991;SDS011;29633;49.168;9.848;2022-08-03T00:00:43;1.38;;;0.88;;
40991;SDS011;29633;49.168;9.848;2022-08-03T00:03:08;0.70;;;0.60;;
40991;SDS011;29633;49.168;9.848;2022-08-03T00:05:35;1.17;;;0.80;;
40991;SDS011;29633;49.168;9.848;2022-08-03T00:08:01;0.93;;;0.80;;
40991;SDS011;29633;49.168;9.848;2022-08-03T00:10:27;1.67;;;0.70;;
40991;SDS011;29633;49.168;9.848;2022-08-03T00:12:54;1.50;;;0.85;;
40991;SDS011;29633;49.168;9.848;2022-08-03T00:15:19;1.17;;;1.00;;
40991;SDS011;29633;49.168;9.848;2022-08-03T00:17:45;4.97;;;0.80;;
40991;SDS011;29633;49.168;9.848;2022-08-03T00:20:11;2.00;;;0.90;;
40991;SDS011;29633;49.168;9.848;2022-08-03T00:22:37;1.95;;;0.90;;
40991;SDS011;29633;49.168;9.848;2022-08-03T00:25:02;2.03;;;1.00;;
40991;SDS011;29633;49.168;9.848;2022-08-03T00:27:29;4.15;;;0.80;;
40991;SDS011;29633;49.168;9.848;2022-08-03T00:29:54;1.60;;;0.90;;
40991;SDS011;29633;49.168;9.848;2022-08-03T00:32:20;1.25;;;0.95;;
40991;SDS011;29633;49.168;9.848;2022-08-03T00:34:46;1.58;;;0.75;;
40991;SDS011;29633;49.168;9.848;2022-08-03T00:37:12;1.23;;;1.00;;
40991;SDS011;29633;49.168;9.848;2022-08-03T00:39:37;2.08;;;1.10;;
40991;SDS011;29633;49.168;9.848;2022-08-03T00:42:04;1.65;;;1.10;;
40991;SDS011;29633;49.168;9.848;2022-08-03T00:44:37;4.57;;;1.00;;
40991;SDS011;29633;49.168;9.848;2022-08-03T00:47:07;1.55;;;1.05;;
40991;SDS011;29633;49.168;9.848;2022-08-03T00:49:38;1.83;;;0.98;;
40991;SDS011;29633;49.168;9.848;2022-08-03T00:52:05;1.70;;;0.90;;
40991;SDS011;29633;49.168;9.848;2022-08-03T00:54:34;1.75;;;1.10;;
40991;SDS011;29633;49.168;9.848;2022-08-03T00:57:01;2.63;;;0.98;;
40991;SDS011;29633;49.168;9.848;2022-08-03T00:59:28;2.42;;;1.00;;
40991;SDS011;29633;49.168;9.848;2022-08-03T01:01:54;1.88;;;1.00;;
40991;SDS011;29633;49.168;9.848;2022-08-03T01:04:20;2.13;;;1.25;;
40991;SDS011;29633;49.168;9.848;2022-08-03T01:17:59;1.58;;;1.08;;
40991;SDS011;29633;49.168;9.848;2022-08-03T01:20:34;1.90;;;1.10;;
40991;SDS011;29633;49.168;9.848;2022-08-03T01:26:05;1.80;;;1.20;;
40991;SDS011;29633;49.168;9.848;2022-08-03T01:31:42;3.58;;;1.30;;
40991;SDS011;29633;49.168;9.848;2022-08-03T01:34:17;2.83;;;1.20;;
40991;SDS011;29633;49.168;9.848;2022-08-03T01:36:51;2.75;;;0.90;;
40991;SDS011;29633;49.168;9.848;2022-08-03T01:39:20;1.75;;;1.20;;
40991;SDS011;29633;49.168;9.848;2022-08-03T01:41:49;2.42;;;1.20;;
40991;SDS011;29633;49.168;9.848;2022-08-03T01:44:23;2.08;;;1.30;;
40991;SDS011;29633;49.168;9.848;2022-08-03T01:46:56;1.55;;;1.17;;
40991;SDS011;29633;49.168;9.848;2022-08-03T01:49:24;1.30;;;1.00;;
40991;SDS011;29633;49.168;9.848;2022-08-03T01:51:54;2.00;;;1.15;;
40991;SDS011;29633;49.168;9.848;2022-08-03T01:54:21;1.10;;;1.00;;
40991;SDS011;29633;49.168;9.848;2022-08-03T01:56:48;1.98;;;1.17;;
40991;SDS011;29633;49.168;9.848;2022-08-03T01:59:17;1.30;;;1.20;;
40991;SDS011;29633;49.168;9.848;2022-08-03T02:01:45;1.85;;;1.20;;
40991;SDS011;29633;49.168;9.848;2022-08-03T02:04:13;2.50;;;1.08;;
40991;SDS011;29633;49.168;9.848;2022-08-03T02:06:43;1.73;;;1.20;;
40991;SDS011;29633;49.168;9.848;2022-08-03T02:09:11;1.35;;;1.08;;
40991;SDS011;29633;49.168;9.848;2022-08-03T02:11:39;1.88;;;1.20;;
40991;SDS011;29633;49.168;9.848;2022-08-03T02:14:07;1.67;;;1.25;;
40991;SDS011;29633;49.168;9.848;2022-08-03T02:16:34;1.50;;;1.20;;
40991;SDS011;29633;49.168;9.848;2022-08-03T02:19:02;1.45;;;1.10;;
40991;SDS011;29633;49.168;9.848;2022-08-03T02:21:31;2.22;;;1.20;;
40991;SDS011;29633;49.168;9.848;2022-08-03T02:24:01;2.83;;;1.48;;
40991;SDS011;29633;49.168;9.848;2022-08-03T02:26:29;1.65;;;1.27;;
40991;SDS011;29633;49.168;9.848;2022-08-03T02:29:01;1.45;;;1.20;;
40991;SDS011;29633;49.168;9.848;2022-08-03T02:31:33;4.15;;;1.45;;
40991;SDS011;29633;49.168;9.848;2022-08-03T02:34:03;1.70;;;1.38;;
40991;SDS011;29633;49.168;9.848;2022-08-03T02:36:36;1.73;;;1.10;;
40991;SDS011;29633;49.168;9.848;2022-08-03T02:39:04;1.67;;;1.27;;
40991;SDS011;29633;49.168;9.848;2022-08-03T02:41:36;2.58;;;1.10;;
40991;SDS011;29633;49.168;9.848;2022-08-03T02:44:09;1.60;;;1.17;;
40991;SDS011;29633;49.168;9.848;2022-08-03T02:46:38;2.40;;;1.25;;
40991;SDS011;29633;49.168;9.848;2022-08-03T02:49:09;1.67;;;1.35;;
40991;SDS011;29633;49.168;9.848;2022-08-03T02:51:38;2.35;;;1.33;;
40991;SDS011;29633;49.168;9.848;2022-08-03T02:54:05;1.67;;;1.52;;
40991;SDS011;29633;49.168;9.848;2022-08-03T02:56:33;1.83;;;1.50;;
40991;SDS011;29633;49.168;9.848;2022-08-03T02:59:00;2.42;;;1.48;;
40991;SDS011;29633;49.168;9.848;2022-08-03T03:01:27;2.15;;;1.63;;
40991;SDS011;29633;49.168;9.848;2022-08-03T03:03:55;5.22;;;1.83;;
40991;SDS011;29633;49.168;9.848;2022-08-03T03:06:22;2.00;;;1.80;;
40991;SDS011;29633;49.168;9.848;2022-08-03T03:08:51;3.47;;;1.65;;
40991;SDS011;29633;49.168;9.848;2022-08-03T03:11:18;3.15;;;1.45;;
40991;SDS011;29633;49.168;9.848;2022-08-03T03:13:46;2.33;;;1.40;;
40991;SDS011;29633;49.168;9.848;2022-08-03T03:16:14;2.67;;;1.60;;
40991;SDS011;29633;49.168;9.848;2022-08-03T03:18:42;2.85;;;1.73;;
40991;SDS011;29633;49.168;9.848;2022-08-03T03:21:10;3.92;;;1.70;;
40991;SDS011;29633;49.168;9.848;2022-08-03T03:23:40;1.65;;;1.55;;
40991;SDS011;29633;49.168;9.848;2022-08-03T03:26:07;1.70;;;1.60;;
40991;SDS011;29633;49.168;9.848;2022-08-03T03:28:33;1.90;;;1.55;;
40991;SDS011;29633;49.168;9.848;2022-08-03T03:31:04;1.70;;;1.52;;
40991;SDS011;29633;49.168;9.848;2022-08-03T03:33:31;2.40;;;1.85;;
40991;SDS011;29633;49.168;9.848;2022-08-03T03:35:59;2.67;;;1.80;;
40991;SDS011;29633;49.168;9.848;2022-08-03T03:38:25;3.70;;;1.75;;
40991;SDS011;29633;49.168;9.848;2022-08-03T03:40:51;2.65;;;1.52;;
40991;SDS011;29633;49.168;9.848;2022-08-03T03:43:17;1.80;;;1.50;;
40991;SDS011;29633;49.168;9.848;2022-08-03T03:45:46;2.20;;;1.58;;
40991;SDS011;29633;49.168;9.848;2022-08-03T03:48:13;3.38;;;1.75;;
40991;SDS011;29633;49.168;9.848;2022-08-03T03:50:39;2.20;;;1.67;;
40991;SDS011;29633;49.168;9.848;2022-08-03T03:53:07;3.42;;;1.70;;
40991;SDS011;29633;49.168;9.848;2022-08-03T03:55:35;2.92;;;1.77;;
40991;SDS011;29633;49.168;9.848;2022-08-03T03:58:02;1.70;;;1.60;;
40991;SDS011;29633;49.168;9.848;2022-08-03T04:00:28;2.08;;;1.45;;
40991;SDS011;29633;49.168;9.848;2022-08-03T04:02:55;1.73;;;1.35;;
40991;SDS011;29633;49.168;9.848;2022-08-03T04:05:21;2.00;;;1.52;;
40991;SDS011;29633;49.168;9.848;2022-08-03T04:08:06;1.48;;;1.38;;
40991;SDS011;29633;49.168;9.848;2022-08-03T04:14:02;2.25;;;1.65;;
40991;SDS011;29633;49.168;9.848;2022-08-03T04:16:37;3.22;;;2.00;;
40991;SDS011;29633;49.168;9.848;2022-08-03T04:19:42;2.53;;;1.92;;
40991;SDS011;29633;49.168;9.848;2022-08-03T04:22:08;2.13;;;1.75;;
40991;SDS011;29633;49.168;9.848;2022-08-03T04:24:40;2.13;;;2.00;;
40991;SDS011;29633;49.168;9.848;2022-08-03T04:27:32;2.38;;;1.80;;
40991;SDS011;29633;49.168;9.848;2022-08-03T04:30:03;3.03;;;1.80;;
40991;SDS011;29633;49.168;9.848;2022-08-03T04:32:31;2.75;;;1.98;;
40991;SDS011;29633;49.168;9.848;2022-08-03T04:34:57;1.83;;;1.73;;
40991;SDS011;29633;49.168;9.848;2022-08-03T04:37:45;3.03;;;2.00;;
40991;SDS011;29633;49.168;9.848;2022-08-03T04:40:13;1.67;;;1.50;;
40991;SDS011;29633;49.168;9.848;2022-08-03T04:42:44;2.35;;;1.75;;
40991;SDS011;29633;49.168;9.848;2022-08-03T04:45:12;2.20;;;1.55;;
40991;SDS011;29633;49.168;9.848;2022-08-03T04:47:41;3.00;;;1.67;;
40991;SDS011;29633;49.168;9.848;2022-08-03T04:50:08;3.42;;;1.90;;
40991;SDS011;29633;49.168;9.848;2022-08-03T04:52:35;1.92;;;1.52;;
40991;SDS011;29633;49.168;9.848;2022-08-03T04:55:01;2.72;;;1.90;;
40991;SDS011;29633;49.168;9.848;2022-08-03T04:57:27;3.17;;;1.52;;
40991;SDS011;29633;49.168;9.848;2022-08-03T04:59:53;2.42;;;1.80;;
40991;SDS011;29633;49.168;9.848;2022-08-03T05:02:20;3.10;;;1.83;;
40991;SDS011;29633;49.168;9.848;2022-08-03T05:04:46;2.50;;;1.83;;
40991;SDS011;29633;49.168;9.848;2022-08-03T05:07:13;2.03;;;1.70;;
40991;SDS011;29633;49.168;9.848;2022-08-03T05:09:40;4.32;;;1.90;;
40991;SDS011;29633;49.168;9.848;2022-08-03T05:12:06;2.97;;;1.88;;
40991;SDS011;29633;49.168;9.848;2022-08-03T05:14:32;2.20;;;2.00;;
40991;SDS011;29633;49.168;9.848;2022-08-03T05:17:01;3.55;;;2.10;;
40991;SDS011;29633;49.168;9.848;2022-08-03T05:19:28;2.63;;;1.90;;
40991;SDS011;29633;49.168;9.848;2022-08-03T05:21:54;3.92;;;2.00;;
40991;SDS011;29633;49.168;9.848;2022-08-03T05:24:20;3.38;;;2.17;;
40991;SDS011;29633;49.168;9.848;2022-08-03T05:26:45;3.00;;;1.83;;
40991;SDS011;29633;49.168;9.848;2022-08-03T05:29:11;3.75;;;2.08;;
40991;SDS011;29633;49.168;9.848;2022-08-03T05:31:37;10.00;;;1.88;;
40991;SDS011;29633;49.168;9.848;2022-08-03T05:34:02;4.82;;;2.08;;
40991;SDS011;29633;49.168;9.848;2022-08-03T05:36:28;4.90;;;2.30;;
40991;SDS011;29633;49.168;9.848;2022-08-03T05:38:54;3.10;;;1.90;;
40991;SDS011;29633;49.168;9.848;2022-08-03T05:41:20;4.63;;;1.85;;
40991;SDS011;29633;49.168;9.848;2022-08-03T05:43:45;4.85;;;1.70;;
40991;SDS011;29633;49.168;9.848;2022-08-03T05:46:11;2.08;;;1.30;;
40991;SDS011;29633;49.168;9.848;2022-08-03T05:48:37;4.75;;;1.60;;
40991;SDS011;29633;49.168;9.848;2022-08-03T05:51:03;3.45;;;1.58;;
40991;SDS011;29633;49.168;9.848;2022-08-03T05:53:34;2.20;;;1.40;;
40991;SDS011;29633;49.168;9.848;2022-08-03T05:56:00;2.60;;;1.45;;
40991;SDS011;29633;49.168;9.848;2022-08-03T05:58:26;2.17;;;1.60;;
40991;SDS011;29633;49.168;9.848;2022-08-03T06:00:51;2.80;;;1.63;;
40991;SDS011;29633;49.168;9.848;2022-08-03T06:03:17;3.65;;;1.50;;
40991;SDS011;29633;49.168;9.848;2022-08-03T06:05:44;1.25;;;1.15;;
40991;SDS011;29633;49.168;9.848;2022-08-03T06:08:10;1.73;;;1.20;;
40991;SDS011;29633;49.168;9.848;2022-08-03T06:10:35;2.60;;;1.15;;
40991;SDS011;29633;49.168;9.848;2022-08-03T06:13:02;1.63;;;1.20;;
40991;SDS011;29633;49.168;9.848;2022-08-03T06:15:28;1.95;;;1.60;;
40991;SDS011;29633;49.168;9.848;2022-08-03T06:17:57;3.38;;;1.15;;
40991;SDS011;29633;49.168;9.848;2022-08-03T06:20:23;1.52;;;1.33;;
40991;SDS011;29633;49.168;9.848;2022-08-03T06:22:48;2.22;;;1.40;;
40991;SDS011;29633;49.168;9.848;2022-08-03T06:25:14;1.55;;;1.13;;
40991;SDS011;29633;49.168;9.848;2022-08-03T06:27:41;1.85;;;1.33;;
40991;SDS011;29633;49.168;9.848;2022-08-03T06:30:07;1.40;;;1.30;;
40991;SDS011;29633;49.168;9.848;2022-08-03T06:32:39;1.67;;;1.15;;
40991;SDS011;29633;49.168;9.848;2022-08-03T06:35:05;4.00;;;1.30;;
40991;SDS011;29633;49.168;9.848;2022-08-03T06:37:46;1.92;;;0.98;;
40991;SDS011;29633;49.168;9.848;2022-08-03T06:40:15;2.95;;;1.10;;
40991;SDS011;29633;49.168;9.848;2022-08-03T06:42:53;2.08;;;0.88;;
40991;SDS011;29633;49.168;9.848;2022-08-03T06:45:20;2.58;;;1.20;;
40991;SDS011;29633;49.168;9.848;2022-08-03T06:47:46;1.70;;;1.00;;
40991;SDS011;29633;49.168;9.848;2022-08-03T06:50:23;1.20;;;1.10;;
40991;SDS011;29633;49.168;9.848;2022-08-03T06:52:49;4.28;;;0.95;;
40991;SDS011;29633;49.168;9.848;2022-08-03T06:55:14;1.23;;;1.13;;
40991;SDS011;29633;49.168;9.848;2022-08-03T06:57:40;1.27;;;1.15;;
40991;SDS011;29633;49.168;9.848;2022-08-03T07:00:06;1.88;;;1.10;;
40991;SDS011;29633;49.168;9.848;2022-08-03T07:02:33;2.25;;;1.20;;
40991;SDS011;29633;49.168;9.848;2022-08-03T07:04:59;1.08;;;0.85;;
40991;SDS011;29633;49.168;9.848;2022-08-03T07:07:25;2.08;;;1.00;;
40991;SDS011;29633;49.168;9.848;2022-08-03T07:09:51;1.83;;;1.15;;
40991;SDS011;29633;49.168;9.848;2022-08-03T07:12:16;1.20;;;1.00;;
40991;SDS011;29633;49.168;9.848;2022-08-03T07:14:42;0.90;;;0.90;;
40991;SDS011;29633;49.168;9.848;2022-08-03T07:17:08;1.25;;;1.13;;
40991;SDS011;29633;49.168;9.848;2022-08-03T07:19:34;2.45;;;1.10;;
40991;SDS011;29633;49.168;9.848;2022-08-03T07:21:59;2.45;;;1.30;;
40991;SDS011;29633;49.168;9.848;2022-08-03T07:24:27;1.58;;;0.98;;
40991;SDS011;29633;49.168;9.848;2022-08-03T07:26:53;1.15;;;1.05;;
40991;SDS011;29633;49.168;9.848;2022-08-03T07:29:19;1.08;;;0.90;;
40991;SDS011;29633;49.168;9.848;2022-08-03T07:31:44;1.00;;;0.90;;
40991;SDS011;29633;49.168;9.848;2022-08-03T07:34:10;1.55;;;1.10;;
40991;SDS011;29633;49.168;9.848;2022-08-03T07:36:36;1.30;;;1.02;;
40991;SDS011;29633;49.168;9.848;2022-08-03T07:39:02;1.27;;;1.10;;
40991;SDS011;29633;49.168;9.848;2022-08-03T07:41:28;4.72;;;1.25;;
40991;SDS011;29633;49.168;9.848;2022-08-03T07:43:54;1.85;;;1.13;;
40991;SDS011;29633;49.168;9.848;2022-08-03T07:46:20;1.00;;;0.90;;
40991;SDS011;29633;49.168;9.848;2022-08-03T07:48:45;1.20;;;1.02;;
40991;SDS011;29633;49.168;9.848;2022-08-03T07:51:11;2.25;;;1.20;;
40991;SDS011;29633;49.168;9.848;2022-08-03T07:53:37;1.10;;;1.00;;
40991;SDS011;29633;49.168;9.848;2022-08-03T07:56:03;1.40;;;0.90;;
40991;SDS011;29633;49.168;9.848;2022-08-03T07:58:29;1.40;;;0.77;;
40991;SDS011;29633;49.168;9.848;2022-08-03T08:00:54;0.88;;;0.82;;
40991;SDS011;29633;49.168;9.848;2022-08-03T08:03:20;1.13;;;0.75;;
40991;SDS011;29633;49.168;9.848;2022-08-03T08:05:46;0.77;;;0.70;;
40991;SDS011;29633;49.168;9.848;2022-08-03T08:08:13;1.10;;;0.90;;
40991;SDS011;29633;49.168;9.848;2022-08-03T08:10:38;2.05;;;0.80;;
40991;SDS011;29633;49.168;9.848;2022-08-03T08:13:04;1.00;;;0.90;;
40991;SDS011;29633;49.168;9.848;2022-08-03T08:15:30;1.10;;;0.88;;
40991;SDS011;29633;49.168;9.848;2022-08-03T08:17:57;0.63;;;0.63;;
40991;SDS011;29633;49.168;9.848;2022-08-03T08:20:32;1.40;;;0.70;;
40991;SDS011;29633;49.168;9.848;2022-08-03T08:23:02;0.70;;;0.70;;
40991;SDS011;29633;49.168;9.848;2022-08-03T08:25:30;0.93;;;0.60;;
40991;SDS011;29633;49.168;9.848;2022-08-03T08:27:58;0.65;;;0.60;;
40991;SDS011;29633;49.168;9.848;2022-08-03T08:30:28;0.63;;;0.50;;
40991;SDS011;29633;49.168;9.848;2022-08-03T08:32:56;0.70;;;0.60;;
40991;SDS011;29633;49.168;9.848;2022-08-03T08:35:23;1.25;;;0.70;;
40991;SDS011;29633;49.168;9.848;2022-08-03T08:37:49;1.02;;;0.80;;
40991;SDS011;29633;49.168;9.848;2022-08-03T08:40:15;1.17;;;0.60;;
40991;SDS011;29633;49.168;9.848;2022-08-03T08:42:44;0.40;;;0.40;;
40991;SDS011;29633;49.168;9.848;2022-08-03T08:45:11;0.80;;;0.60;;
40991;SDS011;29633;49.168;9.848;2022-08-03T08:47:39;0.60;;;0.60;;
40991;SDS011;29633;49.168;9.848;2022-08-03T08:50:09;1.27;;;0.50;;
40991;SDS011;29633;49.168;9.848;2022-08-03T08:52:35;1.00;;;0.60;;
40991;SDS011;29633;49.168;9.848;2022-08-03T08:55:06;1.88;;;0.80;;
40991;SDS011;29633;49.168;9.848;2022-08-03T08:57:35;1.42;;;0.70;;
40991;SDS011;29633;49.168;9.848;2022-08-03T09:00:07;0.70;;;0.68;;
40991;SDS011;29633;49.168;9.848;2022-08-03T09:02:37;1.55;;;0.70;;
40991;SDS011;29633;49.168;9.848;2022-08-03T09:05:03;0.80;;;0.70;;
40991;SDS011;29633;49.168;9.848;2022-08-03T09:07:29;0.98;;;0.70;;
40991;SDS011;29633;49.168;9.848;2022-08-03T09:09:55;0.60;;;0.60;;
40991;SDS011;29633;49.168;9.848;2022-08-03T09:12:21;1.20;;;0.80;;
40991;SDS011;29633;49.168;9.848;2022-08-03T09:14:47;0.73;;;0.70;;
40991;SDS011;29633;49.168;9.848;2022-08-03T09:17:13;0.70;;;0.63;;
40991;SDS011;29633;49.168;9.848;2022-08-03T09:19:39;1.00;;;0.80;;
40991;SDS011;29633;49.168;9.848;2022-08-03T09:24:38;0.88;;;0.70;;
40991;SDS011;29633;49.168;9.848;2022-08-03T09:27:42;1.00;;;0.60;;
40991;SDS011;29633;49.168;9.848;2022-08-03T09:30:13;0.82;;;0.80;;
40991;SDS011;29633;49.168;9.848;2022-08-03T09:32:42;2.78;;;0.70;;
40991;SDS011;29633;49.168;9.848;2022-08-03T09:35:10;0.95;;;0.63;;
40991;SDS011;29633;49.168;9.848;2022-08-03T09:37:38;1.00;;;0.60;;
40991;SDS011;29633;49.168;9.848;2022-08-03T09:40:05;0.85;;;0.68;;
40991;SDS011;29633;49.168;9.848;2022-08-03T09:42:32;2.80;;;0.70;;
40991;SDS011;29633;49.168;9.848;2022-08-03T09:45:02;0.95;;;0.70;;
40991;SDS011;29633;49.168;9.848;2022-08-03T09:47:30;2.00;;;0.80;;
40991;SDS011;29633;49.168;9.848;2022-08-03T09:52:33;1.02;;;0.63;;
40991;SDS011;29633;49.168;9.848;2022-08-03T09:55:11;2.70;;;0.80;;
40991;SDS011;29633;49.168;9.848;2022-08-03T09:57:38;1.13;;;0.73;;
40991;SDS011;29633;49.168;9.848;2022-08-03T10:00:12;0.50;;;0.50;;
40991;SDS011;29633;49.168;9.848;2022-08-03T10:02:40;1.00;;;0.70;;
40991;SDS011;29633;49.168;9.848;2022-08-03T10:05:09;1.73;;;0.73;;
40991;SDS011;29633;49.168;9.848;2022-08-03T10:07:40;0.95;;;0.70;;
40991;SDS011;29633;49.168;9.848;2022-08-03T10:10:08;1.48;;;0.70;;
40991;SDS011;29633;49.168;9.848;2022-08-03T10:12:35;0.70;;;0.65;;
40991;SDS011;29633;49.168;9.848;2022-08-03T10:15:02;0.80;;;0.60;;
40991;SDS011;29633;49.168;9.848;2022-08-03T10:17:29;1.45;;;0.68;;
40991;SDS011;29633;49.168;9.848;2022-08-03T10:19:55;2.38;;;0.60;;
40991;SDS011;29633;49.168;9.848;2022-08-03T10:22:23;0.65;;;0.65;;
40991;SDS011;29633;49.168;9.848;2022-08-03T10:25:10;1.40;;;0.68;;
40991;SDS011;29633;49.168;9.848;2022-08-03T10:27:40;3.90;;;0.70;;
40991;SDS011;29633;49.168;9.848;2022-08-03T10:30:10;0.95;;;0.60;;
40991;SDS011;29633;49.168;9.848;2022-08-03T10:32:41;0.80;;;0.60;;
40991;SDS011;29633;49.168;9.848;2022-08-03T10:35:13;0.95;;;0.70;;
40991;SDS011;29633;49.168;9.848;2022-08-03T10:37:43;1.75;;;0.60;;
40991;SDS011;29633;49.168;9.848;2022-08-03T10:40:19;1.30;;;0.50;;
40991;SDS011;29633;49.168;9.848;2022-08-03T10:42:48;1.55;;;0.60;;
40991;SDS011;29633;49.168;9.848;2022-08-03T10:45:18;0.60;;;0.60;;
40991;SDS011;29633;49.168;9.848;2022-08-03T10:47:48;0.55;;;0.50;;
40991;SDS011;29633;49.168;9.848;2022-08-03T10:50:16;0.90;;;0.43;;
40991;SDS011;29633;49.168;9.848;2022-08-03T10:52:59;0.55;;;0.55;;
40991;SDS011;29633;49.168;9.848;2022-08-03T11:01:00;0.70;;;0.40;;
40991;SDS011;29633;49.168;9.848;2022-08-03T11:03:28;0.45;;;0.45;;
40991;SDS011;29633;49.168;9.848;2022-08-03T11:05:55;0.60;;;0.60;;
40991;SDS011;29633;49.168;9.848;2022-08-03T11:08:43;0.80;;;0.50;;
40991;SDS011;29633;49.168;9.848;2022-08-03T11:16:33;0.50;;;0.40;;
40991;SDS011;29633;49.168;9.848;2022-08-03T11:19:06;0.60;;;0.55;;
40991;SDS011;29633;49.168;9.848;2022-08-03T11:21:56;0.57;;;0.40;;
40991;SDS011;29633;49.168;9.848;2022-08-03T11:30:05;0.63;;;0.52;;
40991;SDS011;29633;49.168;9.848;2022-08-03T11:35:18;0.40;;;0.40;;
40991;SDS011;29633;49.168;9.848;2022-08-03T11:40:32;0.70;;;0.47;;
40991;SDS011;29633;49.168;9.848;2022-08-03T11:46:00;0.50;;;0.47;;
40991;SDS011;29633;49.168;9.848;2022-08-03T11:48:38;0.85;;;0.60;;
40991;SDS011;29633;49.168;9.848;2022-08-03T11:51:17;1.42;;;0.50;;
40991;SDS011;29633;49.168;9.848;2022-08-03T11:53:51;0.63;;;0.55;;
40991;SDS011;29633;49.168;9.848;2022-08-03T11:56:21;0.75;;;0.47;;
40991;SDS011;29633;49.168;9.848;2022-08-03T11:58:48;0.85;;;0.60;;
40991;SDS011;29633;49.168;9.848;2022-08-03T12:01:18;0.93;;;0.40;;
40991;SDS011;29633;49.168;9.848;2022-08-03T12:03:45;1.10;;;0.47;;
40991;SDS011;29633;49.168;9.848;2022-08-03T12:06:12;0.60;;;0.50;;
40991;SDS011;29633;49.168;9.848;2022-08-03T12:08:40;0.40;;;0.40;;
40991;SDS011;29633;49.168;9.848;2022-08-03T12:11:08;0.50;;;0.50;;
40991;SDS011;29633;49.168;9.848;2022-08-03T12:13:44;1.58;;;0.40;;
40991;SDS011;29633;49.168;9.848;2022-08-03T12:16:20;0.63;;;0.50;;
40991;SDS011;29633;49.168;9.848;2022-08-03T12:21:30;0.82;;;0.60;;
40991;SDS011;29633;49.168;9.848;2022-08-03T12:23:57;0.75;;;0.60;;
40991;SDS011;29633;49.168;9.848;2022-08-03T12:26:25;2.05;;;0.50;;
40991;SDS011;29633;49.168;9.848;2022-08-03T12:28:52;0.70;;;0.50;;
40991;SDS011;29633;49.168;9.848;2022-08-03T12:31:18;1.02;;;0.50;;
40991;SDS011;29633;49.168;9.848;2022-08-03T12:33:54;0.60;;;0.40;;
40991;SDS011;29633;49.168;9.848;2022-08-03T12:36:23;0.77;;;0.43;;
40991;SDS011;29633;49.168;9.848;2022-08-03T12:38:55;0.40;;;0.40;;
40991;SDS011;29633;49.168;9.848;2022-08-03T12:41:31;0.63;;;0.40;;
40991;SDS011;29633;49.168;9.848;2022-08-03T12:44:04;1.38;;;0.60;;
40991;SDS011;29633;49.168;9.848;2022-08-03T12:46:39;1.48;;;0.40;;
40991;SDS011;29633;49.168;9.848;2022-08-03T12:49:06;0.47;;;0.47;;
40991;SDS011;29633;49.168;9.848;2022-08-03T12:54:09;0.63;;;0.40;;
40991;SDS011;29633;49.168;9.848;2022-08-03T12:56:57;0.47;;;0.45;;
40991;SDS011;29633;49.168;9.848;2022-08-03T12:59:29;30.42;;;2.22;;
40991;SDS011;29633;49.168;9.848;2022-08-03T13:01:56;1.48;;;0.50;;
40991;SDS011;29633;49.168;9.848;2022-08-03T13:04:30;0.40;;;0.40;;
40991;SDS011;29633;49.168;9.848;2022-08-03T13:10:06;0.38;;;0.38;;
40991;SDS011;29633;49.168;9.848;2022-08-03T13:12:26;1.60;;;0.40;;
40991;SDS011;29633;49.168;9.848;2022-08-03T13:14:54;0.82;;;0.40;;
40991;SDS011;29633;49.168;9.848;2022-08-03T13:17:22;0.60;;;0.40;;
40991;SDS011;29633;49.168;9.848;2022-08-03T13:19:49;0.60;;;0.40;;
40991;SDS011;29633;49.168;9.848;2022-08-03T13:24:47;0.50;;;0.40;;
40991;SDS011;29633;49.168;9.848;2022-08-03T13:27:19;2.60;;;0.47;;
40991;SDS011;29633;49.168;9.848;2022-08-03T13:29:46;0.40;;;0.30;;
40991;SDS011;29633;49.168;9.848;2022-08-03T13:32:11;0.40;;;0.40;;
40991;SDS011;29633;49.168;9.848;2022-08-03T13:34:37;0.38;;;0.30;;
40991;SDS011;29633;49.168;9.848;2022-08-03T13:37:03;0.52;;;0.43;;
40991;SDS011;29633;49.168;9.848;2022-08-03T13:39:29;0.32;;;0.30;;
40991;SDS011;29633;49.168;9.848;2022-08-03T13:41:55;0.63;;;0.40;;
40991;SDS011;29633;49.168;9.848;2022-08-03T13:44:21;0.88;;;0.47;;
40991;SDS011;29633;49.168;9.848;2022-08-03T13:46:47;3.92;;;0.45;;
40991;SDS011;29633;49.168;9.848;2022-08-03T13:49:13;0.30;;;0.30;;
40991;SDS011;29633;49.168;9.848;2022-08-03T13:51:39;0.50;;;0.38;;
40991;SDS011;29633;49.168;9.848;2022-08-03T13:54:05;1.60;;;0.50;;
40991;SDS011;29633;49.168;9.848;2022-08-03T13:56:31;0.45;;;0.40;;
40991;SDS011;29633;49.168;9.848;2022-08-03T13:58:57;0.43;;;0.40;;
40991;SDS011;29633;49.168;9.848;2022-08-03T14:01:23;0.88;;;0.43;;
40991;SDS011;29633;49.168;9.848;2022-08-03T14:03:50;1.17;;;0.40;;
40991;SDS011;29633;49.168;9.848;2022-08-03T14:06:22;0.50;;;0.30;;
40991;SDS011;29633;49.168;9.848;2022-08-03T14:08:48;0.50;;;0.40;;
40991;SDS011;29633;49.168;9.848;2022-08-03T14:11:15;0.43;;;0.40;;
40991;SDS011;29633;49.168;9.848;2022-08-03T14:13:41;0.40;;;0.38;;
40991;SDS011;29633;49.168;9.848;2022-08-03T14:16:07;0.45;;;0.40;;
40991;SDS011;29633;49.168;9.848;2022-08-03T14:18:33;0.70;;;0.57;;
40991;SDS011;29633;49.168;9.848;2022-08-03T14:21:02;0.57;;;0.50;;
40991;SDS011;29633;49.168;9.848;2022-08-03T14:23:30;1.60;;;0.43;;
40991;SDS011;29633;49.168;9.848;2022-08-03T14:25:56;1.40;;;0.40;;
40991;SDS011;29633;49.168;9.848;2022-08-03T14:28:22;0.63;;;0.43;;
40991;SDS011;29633;49.168;9.848;2022-08-03T14:30:51;1.10;;;0.30;;
40991;SDS011;29633;49.168;9.848;2022-08-03T14:33:19;0.88;;;0.40;;
40991;SDS011;29633;49.168;9.848;2022-08-03T14:35:46;0.40;;;0.40;;
40991;SDS011;29633;49.168;9.848;2022-08-03T14:38:12;0.30;;;0.30;;
40991;SDS011;29633;49.168;9.848;2022-08-03T14:40:38;0.50;;;0.40;;
40991;SDS011;29633;49.168;9.848;2022-08-03T14:43:04;0.55;;;0.40;;
40991;SDS011;29633;49.168;9.848;2022-08-03T14:45:30;0.60;;;0.40;;
40991;SDS011;29633;49.168;9.848;2022-08-03T14:47:56;2.15;;;0.40;;
40991;SDS011;29633;49.168;9.848;2022-08-03T14:50:24;1.33;;;0.32;;
40991;SDS011;29633;49.168;9.848;2022-08-03T14:52:52;0.40;;;0.40;;
40991;SDS011;29633;49.168;9.848;2022-08-03T14:55:18;0.40;;;0.40;;
40991;SDS011;29633;49.168;9.848;2022-08-03T14:57:44;0.50;;;0.40;;
40991;SDS011;29633;49.168;9.848;2022-08-03T15:00:10;0.63;;;0.40;;
40991;SDS011;29633;49.168;9.848;2022-08-03T15:02:36;0.50;;;0.40;;
40991;SDS011;29633;49.168;9.848;2022-08-03T15:05:02;0.47;;;0.40;;
40991;SDS011;29633;49.168;9.848;2022-08-03T15:07:28;0.68;;;0.40;;
40991;SDS011;29633;49.168;9.848;2022-08-03T15:09:54;0.32;;;0.30;;
40991;SDS011;29633;49.168;9.848;2022-08-03T15:12:20;0.40;;;0.40;;
40991;SDS011;29633;49.168;9.848;2022-08-03T15:14:45;0.50;;;0.40;;
40991;SDS011;29633;49.168;9.848;2022-08-03T15:17:11;1.80;;;0.47;;
40991;SDS011;29633;49.168;9.848;2022-08-03T15:19:37;0.70;;;0.43;;
40991;SDS011;29633;49.168;9.848;2022-08-03T15:22:04;1.10;;;0.40;;
40991;SDS011;29633;49.168;9.848;2022-08-03T15:24:30;1.98;;;0.38;;
40991;SDS011;29633;49.168;9.848;2022-08-03T15:26:56;0.98;;;0.50;;
40991;SDS011;29633;49.168;9.848;2022-08-03T15:29:21;0.40;;;0.40;;
40991;SDS011;29633;49.168;9.848;2022-08-03T15:31:47;0.52;;;0.40;;
40991;SDS011;29633;49.168;9.848;2022-08-03T15:34:13;0.40;;;0.35;;
40991;SDS011;29633;49.168;9.848;2022-08-03T15:36:38;0.80;;;0.47;;
40991;SDS011;29633;49.168;9.848;2022-08-03T15:39:04;0.75;;;0.45;;
40991;SDS011;29633;49.168;9.848;2022-08-03T15:41:30;0.70;;;0.40;;
40991;SDS011;29633;49.168;9.848;2022-08-03T15:43:56;1.70;;;0.40;;
40991;SDS011;29633;49.168;9.848;2022-08-03T15:46:22;0.38;;;0.38;;
40991;SDS011;29633;49.168;9.848;2022-08-03T15:48:48;0.35;;;0.35;;
40991;SDS011;29633;49.168;9.848;2022-08-03T15:51:13;0.57;;;0.40;;
40991;SDS011;29633;49.168;9.848;2022-08-03T15:53:39;0.70;;;0.40;;
40991;SDS011;29633;49.168;9.848;2022-08-03T15:56:05;0.60;;;0.50;;